Horace A — 9HA3885 — position and weather

sailwx.info

Track history (hours):
 
Tides and Currents Weather Stations Pressure Air Temp Water Temp Dewpoint Dewpoint Depression Visibility Wind Speed Wind Dir Waves Ship Positions

Horace A

Last reported at 2018-Jan-21 15:10 UTC. Time now 2018-Jan-22 04:28 UTC.
Position N 38°36' E 008°51'.

Length 222 m; draft 9.6 m.

Type: Cargo ship. MMSI: 256318000.

Date/timePositionNaut miles runAvg speedWind from/ knotsBaromVisibWave heightAir tempDewpointWater temp
2018-Jan-21 15:10N 38°36' E 008°51'712.7
2018-Jan-21 14:36N 38°38' E 008°42'111.9
2018-Jan-21 14:30N 38°39' E 008°41'31612.2
2018-Jan-20 12:32N 43°08' E 005°03'112.3
2018-Jan-20 12:29N 43°09' E 005°03'612.2
2018-Jan-20 12:00N 43°14' E 005°00'612.1
2018-Jan-20 11:30N 43°20' E 004°58'510.0
2018-Jan-20 11:00N 43°24' E 004°53'3 4.8
2018-Jan-20 10:29N 43°25' E 004°50'0 0.0
2018-Jan-20 09:59N 43°25' E 004°50'0 0.0
2018-Jan-20 09:29N 43°25' E 004°50'0 0.0
2018-Jan-20 08:59N 43°25' E 004°50'0 0.0
2018-Jan-20 08:29N 43°25' E 004°50'0 0.0
2018-Jan-20 07:59N 43°25' E 004°50'0 0.0
2018-Jan-20 07:29N 43°25' E 004°50'0 0.0
2018-Jan-20 06:59N 43°25' E 004°50'0 0.0
2018-Jan-20 06:29N 43°25' E 004°50'0 0.0
2018-Jan-20 05:59N 43°25' E 004°50'0 0.0
2018-Jan-20 05:29N 43°25' E 004°50'0 0.0
2018-Jan-20 04:59N 43°25' E 004°50'0 0.0
2018-Jan-20 04:29N 43°25' E 004°50'0 0.0
2018-Jan-20 03:59N 43°25' E 004°50'0 0.0
2018-Jan-20 03:29N 43°25' E 004°50'0 0.0
2018-Jan-20 02:59N 43°25' E 004°50'0 0.0
2018-Jan-20 02:29N 43°25' E 004°50'0 0.0
2018-Jan-20 01:59N 43°25' E 004°50'0 0.0
2018-Jan-20 01:29N 43°25' E 004°50'0 0.0
2018-Jan-20 00:59N 43°25' E 004°50'0 0.0
2018-Jan-20 00:29N 43°25' E 004°50'0 0.0
2018-Jan-19 23:59N 43°25' E 004°50'0 0.0
2018-Jan-19 23:29N 43°25' E 004°50'0 0.0
2018-Jan-19 22:59N 43°25' E 004°50'0 0.0
2018-Jan-19 22:29N 43°25' E 004°50'0 0.0
2018-Jan-19 21:59N 43°25' E 004°50'0 0.0
2018-Jan-19 21:29N 43°25' E 004°50'0 0.0
2018-Jan-19 20:59N 43°25' E 004°50'0 0.0
2018-Jan-19 20:29N 43°25' E 004°50'0 0.0
2018-Jan-19 19:59N 43°25' E 004°50'0 0.0
2018-Jan-19 19:29N 43°25' E 004°50'0 0.0
2018-Jan-19 18:59N 43°25' E 004°50'0 0.0
2018-Jan-19 18:29N 43°25' E 004°50'0 0.0
2018-Jan-19 17:59N 43°25' E 004°50'0 0.0
2018-Jan-19 17:29N 43°25' E 004°50'0 0.0
2018-Jan-19 16:59N 43°25' E 004°50'0 0.0
2018-Jan-19 16:29N 43°25' E 004°50'0 0.0
2018-Jan-19 15:59N 43°25' E 004°50'0 1.1
2018-Jan-19 15:30N 43°25' E 004°51'510.9
2018-Jan-19 15:00N 43°23' E 004°58'5 9.3
2018-Jan-19 14:30N 43°18' E 004°60'1 1.4
2018-Jan-19 14:00N 43°18' E 005°00'3 5.6
2018-Jan-19 13:30N 43°15' E 005°01'510.4
2018-Jan-19 13:00N 43°10' E 005°03'611.9
2018-Jan-19 12:30N 43°05' E 004°58'14418.9
2018-Jan-19 04:53N 41°27' E 002°36'719.4
2018-Jan-19 04:30N 41°23' E 002°28'1019.1
2018-Jan-19 04:00N 41°18' E 002°17'510.9
2018-Jan-19 03:30N 41°19' E 002°10'2 4.2
2018-Jan-19 02:59N 41°21' E 002°10'0 0.0
2018-Jan-19 02:29N 41°21' E 002°10'0 0.0
2018-Jan-19 01:59N 41°21' E 002°10'0 0.0
2018-Jan-19 01:29N 41°21' E 002°10'0 0.0
2018-Jan-19 00:59N 41°21' E 002°10'0 0.0
2018-Jan-19 00:29N 41°21' E 002°10'0 0.0
2018-Jan-18 23:56N 41°21' E 002°10'0 0.0
2018-Jan-18 23:29N 41°21' E 002°10'0 0.0
2018-Jan-18 22:59N 41°21' E 002°10'0 0.0
2018-Jan-18 22:29N 41°21' E 002°10'0 0.0
2018-Jan-18 21:59N 41°21' E 002°10'0 0.0
2018-Jan-18 21:29N 41°21' E 002°10'0 0.0
2018-Jan-18 20:59N 41°21' E 002°10'0 0.0
2018-Jan-18 20:29N 41°21' E 002°10'0 0.0
2018-Jan-18 19:59N 41°21' E 002°10'0 0.0
2018-Jan-18 19:29N 41°21' E 002°10'0 0.0
2018-Jan-18 18:59N 41°21' E 002°10'0 0.0
2018-Jan-18 18:26N 41°21' E 002°10'0 0.0
2018-Jan-18 17:59N 41°21' E 002°10'0 0.0
2018-Jan-18 17:29N 41°21' E 002°10'0 0.0
2018-Jan-18 16:56N 41°21' E 002°10'0 0.0
2018-Jan-18 16:29N 41°21' E 002°10'0 0.0
2018-Jan-18 15:59N 41°21' E 002°10'0 0.0
2018-Jan-18 15:29N 41°21' E 002°10'0 0.0
2018-Jan-18 14:59N 41°21' E 002°10'0 0.0
2018-Jan-18 14:29N 41°21' E 002°10'0 0.0
2018-Jan-18 13:59N 41°21' E 002°10'0 0.0
2018-Jan-18 13:29N 41°21' E 002°10'0 0.0
2018-Jan-18 12:59N 41°21' E 002°10'0 0.0
2018-Jan-18 12:29N 41°21' E 002°10'0 0.0
2018-Jan-18 11:56N 41°21' E 002°10'0 0.0
2018-Jan-18 11:26N 41°21' E 002°10'0 0.0
2018-Jan-18 10:59N 41°21' E 002°10'0 0.0
2018-Jan-18 10:29N 41°21' E 002°10'0 0.4
2018-Jan-18 10:01N 41°21' E 002°10'3 5.6
2018-Jan-18 09:31N 41°18' E 002°11'1 1.8
2018-Jan-18 09:00N 41°18' E 002°12'0 0.2
2018-Jan-18 08:31N 41°18' E 002°12'0 0.0
2018-Jan-18 08:00N 41°18' E 002°12'0 0.0
2018-Jan-18 07:30N 41°18' E 002°12'0 0.0
2018-Jan-18 07:00N 41°18' E 002°12'0 0.1
2018-Jan-18 06:30N 41°18' E 002°12'0 0.0
2018-Jan-18 06:00N 41°18' E 002°12'0 0.2
2018-Jan-18 05:30N 41°18' E 002°12'0 0.1
2018-Jan-18 05:00N 41°18' E 002°12'0 0.0
2018-Jan-18 04:31N 41°18' E 002°12'0 0.0
2018-Jan-18 03:57N 41°18' E 002°12'0 0.1
2018-Jan-18 03:31N 41°18' E 002°12'0 0.1
2018-Jan-18 03:00N 41°18' E 002°12'0 0.0
2018-Jan-18 02:31N 41°18' E 002°12'0 0.1
2018-Jan-18 02:00N 41°18' E 002°12'0 0.1
2018-Jan-18 01:31N 41°18' E 002°12'0 0.1
2018-Jan-18 01:01N 41°18' E 002°12'0 0.1
2018-Jan-18 00:00N 41°18' E 002°12'0 0.1
2018-Jan-17 23:57N 41°18' E 002°12'  
2018-Jan-11 15:15N 36°49' E 023°30'  
Track history (hours):
 
Tides and Currents Weather Stations Pressure Air Temp Water Temp Dewpoint Dewpoint Depression Visibility Wind Speed Wind Dir Waves Ship Positions

Horace A

Last reported at 2018-Jan-21 15:10 UTC. Time now 2018-Jan-22 04:28 UTC.
Position N 38°36' E 008°51'.

Length 222 m; draft 9.6 m.

Type: Cargo ship. MMSI: 256318000.

Date/timePositionNaut miles runAvg speedWind from/ knotsBaromVisibWave heightAir tempDewpointWater temp
2018-Jan-21 15:10N 38°36' E 008°51'712.7
2018-Jan-21 14:36N 38°38' E 008°42'111.9
2018-Jan-21 14:30N 38°39' E 008°41'31612.2
2018-Jan-20 12:32N 43°08' E 005°03'112.3
2018-Jan-20 12:29N 43°09' E 005°03'612.2
2018-Jan-20 12:00N 43°14' E 005°00'612.1
2018-Jan-20 11:30N 43°20' E 004°58'510.0
2018-Jan-20 11:00N 43°24' E 004°53'3 4.8
2018-Jan-20 10:29N 43°25' E 004°50'0 0.0
2018-Jan-20 09:59N 43°25' E 004°50'0 0.0
2018-Jan-20 09:29N 43°25' E 004°50'0 0.0
2018-Jan-20 08:59N 43°25' E 004°50'0 0.0
2018-Jan-20 08:29N 43°25' E 004°50'0 0.0
2018-Jan-20 07:59N 43°25' E 004°50'0 0.0
2018-Jan-20 07:29N 43°25' E 004°50'0 0.0
2018-Jan-20 06:59N 43°25' E 004°50'0 0.0
2018-Jan-20 06:29N 43°25' E 004°50'0 0.0
2018-Jan-20 05:59N 43°25' E 004°50'0 0.0
2018-Jan-20 05:29N 43°25' E 004°50'0 0.0
2018-Jan-20 04:59N 43°25' E 004°50'0 0.0
2018-Jan-20 04:29N 43°25' E 004°50'0 0.0
2018-Jan-20 03:59N 43°25' E 004°50'0 0.0
2018-Jan-20 03:29N 43°25' E 004°50'0 0.0
2018-Jan-20 02:59N 43°25' E 004°50'0 0.0
2018-Jan-20 02:29N 43°25' E 004°50'0 0.0
2018-Jan-20 01:59N 43°25' E 004°50'0 0.0
2018-Jan-20 01:29N 43°25' E 004°50'0 0.0
2018-Jan-20 00:59N 43°25' E 004°50'0 0.0
2018-Jan-20 00:29N 43°25' E 004°50'0 0.0
2018-Jan-19 23:59N 43°25' E 004°50'0 0.0
2018-Jan-19 23:29N 43°25' E 004°50'0 0.0
2018-Jan-19 22:59N 43°25' E 004°50'0 0.0
2018-Jan-19 22:29N 43°25' E 004°50'0 0.0
2018-Jan-19 21:59N 43°25' E 004°50'0 0.0
2018-Jan-19 21:29N 43°25' E 004°50'0 0.0
2018-Jan-19 20:59N 43°25' E 004°50'0 0.0
2018-Jan-19 20:29N 43°25' E 004°50'0 0.0
2018-Jan-19 19:59N 43°25' E 004°50'0 0.0
2018-Jan-19 19:29N 43°25' E 004°50'0 0.0
2018-Jan-19 18:59N 43°25' E 004°50'0 0.0
2018-Jan-19 18:29N 43°25' E 004°50'0 0.0
2018-Jan-19 17:59N 43°25' E 004°50'0 0.0
2018-Jan-19 17:29N 43°25' E 004°50'0 0.0
2018-Jan-19 16:59N 43°25' E 004°50'0 0.0
2018-Jan-19 16:29N 43°25' E 004°50'0 0.0
2018-Jan-19 15:59N 43°25' E 004°50'0 1.1
2018-Jan-19 15:30N 43°25' E 004°51'510.9
2018-Jan-19 15:00N 43°23' E 004°58'5 9.3
2018-Jan-19 14:30N 43°18' E 004°60'1 1.4
2018-Jan-19 14:00N 43°18' E 005°00'3 5.6
2018-Jan-19 13:30N 43°15' E 005°01'510.4
2018-Jan-19 13:00N 43°10' E 005°03'611.9
2018-Jan-19 12:30N 43°05' E 004°58'14418.9
2018-Jan-19 04:53N 41°27' E 002°36'719.4
2018-Jan-19 04:30N 41°23' E 002°28'1019.1
2018-Jan-19 04:00N 41°18' E 002°17'510.9
2018-Jan-19 03:30N 41°19' E 002°10'2 4.2
2018-Jan-19 02:59N 41°21' E 002°10'0 0.0
2018-Jan-19 02:29N 41°21' E 002°10'0 0.0
2018-Jan-19 01:59N 41°21' E 002°10'0 0.0
2018-Jan-19 01:29N 41°21' E 002°10'0 0.0
2018-Jan-19 00:59N 41°21' E 002°10'0 0.0
2018-Jan-19 00:29N 41°21' E 002°10'0 0.0
2018-Jan-18 23:56N 41°21' E 002°10'0 0.0
2018-Jan-18 23:29N 41°21' E 002°10'0 0.0
2018-Jan-18 22:59N 41°21' E 002°10'0 0.0
2018-Jan-18 22:29N 41°21' E 002°10'0 0.0
2018-Jan-18 21:59N 41°21' E 002°10'0 0.0
2018-Jan-18 21:29N 41°21' E 002°10'0 0.0
2018-Jan-18 20:59N 41°21' E 002°10'0 0.0
2018-Jan-18 20:29N 41°21' E 002°10'0 0.0
2018-Jan-18 19:59N 41°21' E 002°10'0 0.0
2018-Jan-18 19:29N 41°21' E 002°10'0 0.0
2018-Jan-18 18:59N 41°21' E 002°10'0 0.0
2018-Jan-18 18:26N 41°21' E 002°10'0 0.0
2018-Jan-18 17:59N 41°21' E 002°10'0 0.0
2018-Jan-18 17:29N 41°21' E 002°10'0 0.0
2018-Jan-18 16:56N 41°21' E 002°10'0 0.0
2018-Jan-18 16:29N 41°21' E 002°10'0 0.0
2018-Jan-18 15:59N 41°21' E 002°10'0 0.0
2018-Jan-18 15:29N 41°21' E 002°10'0 0.0
2018-Jan-18 14:59N 41°21' E 002°10'0 0.0
2018-Jan-18 14:29N 41°21' E 002°10'0 0.0
2018-Jan-18 13:59N 41°21' E 002°10'0 0.0
2018-Jan-18 13:29N 41°21' E 002°10'0 0.0
2018-Jan-18 12:59N 41°21' E 002°10'0 0.0
2018-Jan-18 12:29N 41°21' E 002°10'0 0.0
2018-Jan-18 11:56N 41°21' E 002°10'0 0.0
2018-Jan-18 11:26N 41°21' E 002°10'0 0.0
2018-Jan-18 10:59N 41°21' E 002°10'0 0.0
2018-Jan-18 10:29N 41°21' E 002°10'0 0.4
2018-Jan-18 10:01N 41°21' E 002°10'3 5.6
2018-Jan-18 09:31N 41°18' E 002°11'1 1.8
2018-Jan-18 09:00N 41°18' E 002°12'0 0.2
2018-Jan-18 08:31N 41°18' E 002°12'0 0.0
2018-Jan-18 08:00N 41°18' E 002°12'0 0.0
2018-Jan-18 07:30N 41°18' E 002°12'0 0.0
2018-Jan-18 07:00N 41°18' E 002°12'0 0.1
2018-Jan-18 06:30N 41°18' E 002°12'0 0.0
2018-Jan-18 06:00N 41°18' E 002°12'0 0.2
2018-Jan-18 05:30N 41°18' E 002°12'0 0.1
2018-Jan-18 05:00N 41°18' E 002°12'0 0.0
2018-Jan-18 04:31N 41°18' E 002°12'0 0.0
2018-Jan-18 03:57N 41°18' E 002°12'0 0.1
2018-Jan-18 03:31N 41°18' E 002°12'0 0.1
2018-Jan-18 03:00N 41°18' E 002°12'0 0.0
2018-Jan-18 02:31N 41°18' E 002°12'0 0.1
2018-Jan-18 02:00N 41°18' E 002°12'0 0.1
2018-Jan-18 01:31N 41°18' E 002°12'0 0.1
2018-Jan-18 01:01N 41°18' E 002°12'0 0.1
2018-Jan-18 00:00N 41°18' E 002°12'0 0.1
2018-Jan-17 23:57N 41°18' E 002°12'  
2018-Jan-11 15:15N 36°49' E 023°30'  

Dump ship's entire track history